LGKZ/KZI METAR and TAF weather

Enter ICAO airport designator
Station Type Date Time Source
LGKZ METAR 2020/09/20 05:50 UTC NOAA

LGKZ 200550Z 00000KT 9999 FEW020 SCT070 15/13 Q1020


Station Type Date Time Source
LGKZ Decoded METAR 2020/09/20 05:50 UTC NOAA

Kozani Airport , Greece (LGKZ) 40-18N 021-47E 627M
Sep 20, 2020 - 01:50 AM EDT / 2020.09.20 0550 UTC
Wind: Calm:0
Visibility: greater than 7 mile(s):0
Sky conditions: partly cloudy
Temperature: 59 F (15 C)
Dew Point: 55 F (13 C)
Relative Humidity: 87%
Pressure (altimeter): 30.12 in. Hg (1020 hPa)
ob: LGKZ 200550Z 00000KT 9999 FEW020 SCT070 15/13 Q1020
cycle: 6

Station Type Date Time Source
LGKZ TAF UTC NOAA

Error!

Example: see airport list